Time;durP1;ratioP1;P1;durP2;ratioP2;P2;SDS_P1;SDS_P2;PMS_P1;PMS_P2;Temp;Humidity;BMP_temperature;BMP_pressure;BME280_temperature;BME280_humidity;BME280_pressure;Samples;Min_cycle;Max_cycle;Signal;HPM_P1;HPM_P2
2022/10/21 00:41:39;;;;;;;17.65;14.18;;;;;;;13.89;79.53;96521.13;5002281;28;20091;-85
2022/10/21 00:44:11;;;;;;;21.33;14.73;;;;;;;13.87;79.89;96512.66;5002267;28;20062;-85
2022/10/21 00:46:45;;;;;;;17.83;14.38;;;;;;;13.84;79.85;96515.72;5002113;28;20037;-85
2022/10/21 00:49:18;;;;;;;19.23;14.75;;;;;;;13.83;80.34;96506.22;5002029;28;20043;-84
2022/10/21 00:51:51;;;;;;;19.60;14.80;;;;;;;13.84;80.37;96513.09;5002211;28;20046;-84
2022/10/21 00:54:23;;;;;;;17.92;14.02;;;;;;;13.83;80.27;96511.44;5002245;28;20035;-85
2022/10/21 00:56:56;;;;;;;17.85;13.48;;;;;;;13.80;80.42;96506.63;5002022;28;20057;-85
2022/10/21 00:59:27;;;;;;;;;;;;;;;13.78;80.29;96503.41;5002331;28;20041;-83
2022/10/21 01:01:55;;;;;;;18.20;13.80;;;;;;;13.74;80.13;96499.56;5001861;28;19932;-83
2022/10/21 01:04:24;;;;;;;18.90;13.98;;;;;;;13.71;80.29;96492.94;5001755;28;20049;-84
2022/10/21 01:06:54;;;;;;;17.60;13.90;;;;;;;13.67;80.62;96485.69;5001739;28;20131;-84
2022/10/21 01:09:24;;;;;;;18.73;15.00;;;;;;;13.67;80.91;96485.69;5001543;28;20038;-85
2022/10/21 01:11:55;;;;;;;17.10;13.27;;;;;;;13.66;81.04;96478.81;5001830;28;20031;-84
2022/10/21 01:14:46;;;;;;;18.13;14.48;;;;;;;13.66;81.69;96465.72;5001927;28;20050;-85
2022/10/21 02:02:02;;;;;;;11.85;9.02;;;;;;;14.48;78.86;96442.44;5348510;23;20069;-84
2022/10/21 02:12:39;;;;;;;15.43;11.40;;;;;;;14.51;78.80;96439.38;5893813;23;20033;-84
2022/10/21 02:15:10;;;;;;;13.82;10.38;;;;;;;14.49;78.80;96441.41;5020598;28;20038;-83
2022/10/21 02:17:45;;;;;;;13.90;11.15;;;;;;;14.51;78.77;96439.38;5002372;28;20047;-83
2022/10/21 02:20:16;;;;;;;14.02;10.70;;;;;;;14.50;78.59;96443.03;5000649;28;20272;-83
2022/10/21 02:22:48;;;;;;;17.92;11.65;;;;;;;14.53;78.59;96437.34;5000300;28;20045;-85
2022/10/21 02:25:20;;;;;;;16.55;11.35;;;;;;;14.55;78.68;96440.63;5000507;28;20062;-84
2022/10/21 02:27:49;;;;;;;17.13;11.05;;;;;;;14.56;78.67;96429.09;5000157;28;20062;-84
2022/10/21 02:30:19;;;;;;;11.35;10.10;;;;;;;14.55;78.47;96432.75;5000243;28;20039;-84
2022/10/21 02:32:57;;;;;;;16.60;10.48;;;;;;;14.57;78.87;96438.59;5000178;28;20030;-84
2022/10/21 02:35:34;;;;;;;13.75;10.77;;;;;;;14.59;78.68;96444.44;5000164;28;20066;-83
2022/10/21 02:38:10;;;;;;;16.05;10.25;;;;;;;14.61;78.40;96442.41;4999767;28;20063;-84
2022/10/21 02:40:45;;;;;;;13.38;9.13;;;;;;;14.63;78.23;96448.25;4999905;28;20070;-84
2022/10/21 02:43:19;;;;;;;14.52;9.18;;;;;;;14.65;78.18;96433.09;5000078;28;20066;-85
2022/10/21 02:45:49;;;;;;;17.33;9.68;;;;;;;14.68;78.30;96434.47;4999860;28;20086;-85
2022/10/21 02:48:19;;;;;;;13.63;9.60;;;;;;;14.69;78.17;96439.50;4999825;28;20031;-84
2022/10/21 02:50:48;;;;;;;12.50;9.50;;;;;;;14.70;78.42;96443.75;4999966;28;20035;-85
2022/10/21 02:53:19;;;;;;;14.30;9.38;;;;;;;14.71;78.72;96434.84;4999817;28;20031;-85
2022/10/21 02:55:48;;;;;;;11.57;7.93;;;;;;;14.73;78.75;96418.88;4999686;28;20064;-85
2022/10/21 02:58:17;;;;;;;12.70;8.85;;;;;;;14.72;79.12;96399.72;4999450;28;20107;-82
2022/10/21 03:00:49;;;;;;;18.75;9.43;;;;;;;14.74;79.08;96402.94;4999682;28;20034;-85
2022/10/21 03:03:21;;;;;;;12.57;8.27;;;;;;;14.76;79.44;96400.91;4999720;28;20038;-84
2022/10/21 03:05:50;;;;;;;12.18;7.95;;;;;;;14.79;79.42;96397.84;4998959;28;20090;-82
2022/10/21 03:08:18;;;;;;;10.80;7.25;;;;;;;14.83;79.37;96385.91;4999538;28;20073;-84
2022/10/21 03:10:49;;;;;;;13.45;7.45;;;;;;;14.86;79.78;96379.41;4999340;28;20042;-85
2022/10/21 03:13:20;;;;;;;9.35;6.43;;;;;;;14.87;79.62;96375.78;4998720;28;20039;-83
2022/10/21 03:15:50;;;;;;;9.82;6.72;;;;;;;14.89;79.74;96376.38;4998842;28;20050;-84
2022/10/21 03:18:20;;;;;;;9.57;6.97;;;;;;;14.90;80.08;96366.66;4999265;28;20053;-83
2022/10/21 03:20:52;;;;;;;9.48;6.65;;;;;;;14.90;80.01;96364.03;4999017;28;20041;-84
2022/10/21 03:23:22;;;;;;;11.20;7.07;;;;;;;14.91;79.75;96355.13;4998494;28;20041;-85
2022/10/21 03:25:53;;;;;;;12.50;8.30;;;;;;;14.90;79.55;96353.53;4999005;28;20046;-84
2022/10/21 03:28:23;;;;;;;13.02;8.15;;;;;;;14.90;79.79;96353.53;5019091;23;20035;-84
2022/10/21 03:30:52;;;;;;;14.77;7.63;;;;;;;14.93;79.54;96360.97;4979823;28;20062;-83
2022/10/21 03:33:23;;;;;;;13.30;7.18;;;;;;;14.95;79.54;96369.44;4979590;28;20027;-84
2022/10/21 03:35:52;;;;;;;13.07;6.83;;;;;;;14.95;79.40;96357.09;4979776;28;20035;-85
2022/10/21 03:38:21;;;;;;;13.05;6.60;;;;;;;14.96;79.40;96347.44;4979687;28;20305;-83
2022/10/21 03:40:50;;;;;;;9.90;6.05;;;;;;;14.95;79.41;96345.81;4978203;28;20035;-84
2022/10/21 03:43:20;;;;;;;13.40;6.53;;;;;;;14.95;79.33;96343.19;4979957;28;20059;-85
2022/10/21 03:45:49;;;;;;;9.13;5.25;;;;;;;14.94;79.17;96336.31;4979454;28;20047;-85
2022/10/21 03:48:21;;;;;;;12.02;5.95;;;;;;;14.94;79.54;96346.84;4979466;28;20036;-87
2022/10/21 04:20:50;;;;;;;7.72;5.78;;;;;;;15.06;78.58;96310.94;5949388;23;20045;-84
2022/10/21 04:23:21;;;;;;;10.95;5.93;;;;;;;15.06;78.53;96300.44;5025993;28;20030;-86
2022/10/21 04:25:51;;;;;;;8.13;5.10;;;;;;;15.05;78.22;96298.84;5000875;28;20059;-85
2022/10/21 04:28:23;;;;;;;8.38;5.80;;;;;;;15.04;78.16;96297.22;5014901;28;20049;-86
2022/10/21 04:30:56;;;;;;;8.48;5.80;;;;;;;15.02;78.02;96292.19;5022304;28;20042;-83
2022/10/21 04:33:25;;;;;;;11.05;6.65;;;;;;;15.02;78.03;96280.88;4997582;28;20085;-82
2022/10/21 04:41:54;;;;;;;11.05;7.10;;;;;;;14.99;78.25;96283.94;5219468;23;20471;-82
2022/10/21 04:44:24;;;;;;;13.30;6.57;;;;;;;14.99;77.91;96278.69;5004857;28;20050;-80
2022/10/21 04:49:39;;;;;;;11.18;5.80;;;;;;;15.00;78.15;96269.81;5101891;23;20126;-84
2022/10/21 04:52:11;;;;;;;8.52;5.88;;;;;;;14.99;78.10;96268.19;5012887;28;20074;-84
2022/10/21 05:35:44;;;;;;;13.55;9.65;;;;;;;14.95;79.17;96294.06;5885561;23;20503;-81
2022/10/21 05:38:11;;;;;;;11.95;8.45;;;;;;;14.94;79.33;96302.19;4970700;28;20051;-82
2022/10/21 10:45:53;;;;;;;10.40;3.40;;;;;;;16.72;73.90;96334.38;5890361;23;20365;-79
2022/10/21 11:16:41;;;;;;;5.40;2.90;;;;;;;16.96;74.12;96381.84;5001389;28;20050;-81
2022/10/21 11:19:54;;;;;;;6.18;3.55;;;;;;;16.99;74.51;96376.13;4987012;28;20037;-79
2022/10/21 11:22:41;;;;;;;6.75;2.58;;;;;;;17.01;74.39;96380.16;4983124;28;20035;-79
2022/10/21 11:25:25;;;;;;;5.72;2.53;;;;;;;17.06;74.33;96382.09;4993967;23;20050;-79
2022/10/21 13:21:23;;;;;;;2.38;0.82;;;;;;;19.08;62.28;96376.00;5108733;23;20049;-79
2022/10/21 14:54:09;;;;;;;1.30;0.10;;;;;;;18.20;61.24;96355.22;6075956;23;20028;-79
2022/10/21 15:16:19;;;;;;;2.75;0.45;;;;;;;18.07;61.68;96329.91;4246087;23;20034;-78
2022/10/21 16:59:17;;;;;;;7.53;4.13;;;;;;;17.14;66.54;96362.50;5011999;23;20051;-80
2022/10/21 17:01:45;;;;;;;4.85;3.38;;;;;;;17.10;66.43;96351.63;4984041;28;20047;-79
2022/10/21 17:04:14;;;;;;;3.60;1.83;;;;;;;17.08;66.02;96353.69;4982067;28;20039;-79
2022/10/21 17:06:43;;;;;;;7.45;4.45;;;;;;;17.06;66.57;96350.47;4982352;28;20031;-79
2022/10/21 17:09:11;;;;;;;4.90;2.80;;;;;;;17.03;66.45;96346.47;4982084;28;20038;-79
2022/10/21 17:11:41;;;;;;;4.30;3.00;;;;;;;17.02;66.55;96349.34;4981890;28;20061;-79
2022/10/21 17:14:15;;;;;;;4.10;3.28;;;;;;;16.99;66.70;96349.78;4982376;28;20035;-80
2022/10/21 17:16:45;;;;;;;9.50;4.40;;;;;;;16.97;66.81;96343.97;4982073;28;20039;-79
2022/10/21 17:19:14;;;;;;;37.05;25.65;;;;;;;16.94;67.10;96352.28;4981793;28;20058;-79
2022/10/21 17:21:44;;;;;;;12.18;7.47;;;;;;;16.91;67.11;96361.47;4982256;28;20050;-79
2022/10/21 17:24:14;;;;;;;8.40;4.47;;;;;;;16.88;67.25;96362.72;4982370;28;20059;-79
2022/10/21 17:26:42;;;;;;;4.85;3.33;;;;;;;16.87;67.07;96363.75;4982219;28;20067;-80
